Time;durP1;ratioP1;P1;durP2;ratioP2;P2;SDS_P1;SDS_P2;PMS_P1;PMS_P2;Temp;Humidity;BMP_temperature;BMP_pressure;BME280_temperature;BME280_humidity;BME280_pressure;Samples;Min_cycle;Max_cycle;Signal;HPM_P1;HPM_P2
2022/09/05 00:01:45;;;;;;;4.20;1.80;;;;;13.20;98145.80;;;;110590;1250;41154;-60
2022/09/05 00:04:55;;;;;;;3.20;1.60;;;;;13.20;98149.00;;;;110847;1248;41976;-61
2022/09/05 00:07:42;;;;;;;4.90;1.70;;;;;13.20;98152.60;;;;111002;1248;42054;-61
2022/09/05 00:11:40;;;;;;;3.60;1.80;;;;;13.26;98147.80;;;;110972;1248;41263;-61
2022/09/05 00:14:55;;;;;;;3.90;1.70;;;;;13.30;98143.20;;;;111047;1248;41365;-60
2022/09/05 00:18:10;;;;;;;3.80;1.80;;;;;13.34;98140.40;;;;110983;1250;41594;-61
2022/09/05 00:21:23;;;;;;;3.70;1.70;;;;;13.40;98135.20;;;;110927;1250;41612;-60
2022/09/05 00:24:46;;;;;;;2.70;1.70;;;;;13.38;98132.60;;;;110841;1250;41349;-60
2022/09/05 00:28:12;;;;;;;4.70;2.10;;;;;13.32;98135.20;;;;109585;1248;1807079;-60
2022/09/05 00:31:36;;;;;;;4.00;1.80;;;;;13.30;98129.20;;;;111081;1247;41173;-60
2022/09/05 00:35:00;;;;;;;3.30;1.70;;;;;13.24;98133.80;;;;111014;1249;41135;-60
2022/09/05 00:37:48;;;;;;;6.40;2.30;;;;;13.20;98126.80;;;;111008;1248;41139;-61
2022/09/05 00:40:39;;;;;;;3.50;1.80;;;;;13.20;98125.20;;;;110979;1249;41137;-60
2022/09/05 00:43:45;;;;;;;4.40;1.80;;;;;13.20;98123.20;;;;110710;1250;41412;-61
2022/09/05 00:46:36;;;;;;;3.20;1.80;;;;;13.30;98127.20;;;;110659;1250;41256;-60
2022/09/05 00:49:37;;;;;;;2.80;1.50;;;;;13.30;98126.60;;;;110965;1250;41259;-61
2022/09/05 00:52:56;;;;;;;2.80;1.50;;;;;13.40;98130.00;;;;110599;1249;41168;-60
2022/09/05 00:56:00;;;;;;;2.80;1.50;;;;;13.40;98132.20;;;;110598;1250;42842;-60
2022/09/05 00:59:07;;;;;;;2.70;1.60;;;;;13.50;98129.40;;;;110582;1251;41151;-60
2022/09/05 01:02:00;;;;;;;3.50;1.80;;;;;13.58;98132.00;;;;110646;1250;41200;-60
2022/09/05 01:05:04;;;;;;;2.50;1.40;;;;;13.60;98130.00;;;;110611;1251;41149;-60
2022/09/05 01:08:15;;;;;;;2.10;1.40;;;;;13.64;98126.00;;;;110612;1249;42023;-61
2022/09/05 01:11:12;;;;;;;2.20;1.50;;;;;13.70;98130.00;;;;110936;1248;41146;-60
2022/09/05 01:14:29;;;;;;;2.40;1.40;;;;;13.70;98133.40;;;;110961;1248;41315;-60
2022/09/05 01:17:47;;;;;;;2.90;1.70;;;;;13.80;98130.40;;;;111009;1249;41320;-61
2022/09/05 01:20:45;;;;;;;5.00;2.00;;;;;13.90;98130.00;;;;111094;1248;41152;-61
2022/09/05 01:23:47;;;;;;;3.60;1.80;;;;;13.80;98127.40;;;;110653;1249;41170;-61
2022/09/05 01:27:02;;;;;;;;;;;;;13.80;98124.60;;;;110601;1250;41261;-61
2022/09/05 01:29:55;;;;;;;2.80;1.60;;;;;13.70;98126.40;;;;110284;1249;41275;-60
2022/09/05 01:33:08;;;;;;;2.90;1.50;;;;;13.70;98124.40;;;;110977;1247;41291;-60
2022/09/05 01:36:30;;;;;;;2.50;1.40;;;;;13.78;98128.60;;;;111007;1248;41137;-59
2022/09/05 01:39:35;;;;;;;2.20;1.40;;;;;13.80;98131.20;;;;111022;1249;41312;-60
2022/09/05 01:43:19;;;;;;;1.90;1.40;;;;;13.80;98129.80;;;;111061;1247;41600;-60
2022/09/05 01:46:33;;;;;;;3.10;1.60;;;;;13.88;98128.20;;;;111019;1248;41602;-60
2022/09/05 01:49:46;;;;;;;6.00;1.90;;;;;13.80;98125.80;;;;110987;1247;41703;-61
2022/09/05 01:52:58;;;;;;;2.30;1.40;;;;;13.80;98131.40;;;;111023;1247;41596;-61
2022/09/05 01:56:09;;;;;;;2.80;1.50;;;;;13.80;98128.80;;;;110967;1249;41149;-62
2022/09/05 01:59:19;;;;;;;1.70;1.30;;;;;13.80;98129.20;;;;110943;1248;41146;-60
2022/09/05 02:02:23;;;;;;;2.20;1.50;;;;;13.80;98128.80;;;;110726;1250;41263;-61
2022/09/05 02:05:44;;;;;;;1.90;1.40;;;;;13.80;98131.20;;;;110977;1248;41772;-61
2022/09/05 02:08:35;;;;;;;;;;;;;13.70;98128.00;;;;110441;1248;41280;-60
2022/09/05 02:11:53;;;;;;;3.70;1.80;;;;;13.60;98128.40;;;;111028;1248;41235;-60
2022/09/05 02:14:44;;;;;;;3.50;1.80;;;;;13.50;98133.60;;;;110987;1249;41793;-60
2022/09/05 02:17:40;;;;;;;2.10;1.50;;;;;13.50;98131.80;;;;110969;1248;42907;-61
2022/09/05 02:20:58;;;;;;;3.70;1.60;;;;;13.40;98127.40;;;;110966;1249;41309;-61
2022/09/05 02:24:15;;;;;;;3.70;1.70;;;;;13.30;98129.40;;;;110601;1250;41629;-60
2022/09/05 02:27:28;;;;;;;5.20;1.80;;;;;13.20;98122.40;;;;110612;1249;41259;-59
2022/09/05 02:30:41;;;;;;;1.80;1.40;;;;;13.20;98125.40;;;;110591;1251;41287;-60
2022/09/05 02:33:49;;;;;;;;;;;;;13.10;98123.00;;;;110957;1249;42059;-60
2022/09/05 02:36:42;;;;;;;2.60;1.50;;;;;13.00;98122.80;;;;111008;1247;41269;-61
2022/09/05 02:39:38;;;;;;;2.10;1.50;;;;;13.00;98123.00;;;;110984;1247;41246;-61
2022/09/05 02:43:00;;;;;;;1.80;1.50;;;;;13.00;98119.40;;;;110996;1248;41258;-61
2022/09/05 02:46:29;;;;;;;1.60;1.40;;;;;13.00;98119.60;;;;111066;1247;41273;-61
2022/09/05 02:49:27;;;;;;;3.00;1.50;;;;;12.92;98120.80;;;;111014;1247;42090;-61
2022/09/05 02:52:36;;;;;;;2.70;1.60;;;;;12.90;98117.40;;;;110840;1250;41369;-61
2022/09/05 02:55:51;;;;;;;2.20;1.40;;;;;12.82;98124.60;;;;110991;1247;41165;-61
2022/09/05 02:59:45;;;;;;;1.80;1.30;;;;;12.80;98127.00;;;;110598;1250;41962;-60
2022/09/05 03:03:05;;;;;;;2.50;1.50;;;;;12.80;98131.40;;;;110586;1250;41264;-60
2022/09/05 03:06:16;;;;;;;2.00;1.30;;;;;12.70;98133.80;;;;110951;1247;41942;-61
2022/09/05 03:09:06;;;;;;;;;;;;;12.70;98132.20;;;;111025;1248;41233;-61
2022/09/05 03:12:37;;;;;;;1.90;1.30;;;;;12.60;98128.40;;;;110737;1250;42371;-61
2022/09/05 03:15:35;;;;;;;2.20;1.40;;;;;12.60;98130.40;;;;110174;1256;42125;-60
2022/09/05 03:18:49;;;;;;;2.40;1.60;;;;;12.68;98131.20;;;;110999;1248;41145;-60
2022/09/05 03:22:06;;;;;;;3.40;1.70;;;;;12.70;98135.80;;;;111119;1248;41406;-60
2022/09/05 03:25:09;;;;;;;2.30;1.60;;;;;12.70;98133.40;;;;110709;1249;41273;-60
2022/09/05 03:28:14;;;;;;;2.90;1.60;;;;;12.70;98136.20;;;;111035;1249;41259;-61
2022/09/05 03:31:10;;;;;;;2.30;1.50;;;;;12.68;98141.20;;;;110992;1248;41997;-61
2022/09/05 03:34:15;;;;;;;4.60;2.00;;;;;12.60;98138.60;;;;110672;1249;42125;-61
2022/09/05 03:37:20;;;;;;;4.20;2.20;;;;;12.60;98144.20;;;;111035;1248;41231;-61
2022/09/05 03:40:27;;;;;;;2.90;1.60;;;;;12.60;98143.00;;;;110977;1248;41328;-59
2022/09/05 03:43:32;;;;;;;3.20;1.80;;;;;12.60;98148.40;;;;111012;1249;41155;-61
2022/09/05 03:46:27;;;;;;;5.20;1.90;;;;;12.60;98152.00;;;;110946;1249;42478;-63
2022/09/05 03:49:34;;;;;;;5.20;2.20;;;;;12.60;98157.60;;;;111019;1248;41506;-61
2022/09/05 03:52:42;;;;;;;3.00;1.70;;;;;12.50;98161.20;;;;111080;1250;42236;-60
2022/09/05 03:56:22;;;;;;;3.40;1.80;;;;;12.50;98163.20;;;;110996;1249;41167;-60
2022/09/05 03:59:50;;;;;;;3.60;1.70;;;;;12.50;98164.00;;;;110619;1250;41588;-61
2022/09/05 04:02:59;;;;;;;3.80;1.70;;;;;12.50;98165.80;;;;110834;1250;41169;-61
2022/09/05 04:06:42;;;;;;;2.80;1.60;;;;;12.50;98159.80;;;;111021;1247;41388;-61
2022/09/05 04:09:54;;;;;;;2.70;1.70;;;;;12.50;98163.20;;;;111010;1247;41157;-61
2022/09/05 04:13:27;;;;;;;3.00;1.60;;;;;12.52;98161.60;;;;111054;1249;41186;-61
2022/09/05 04:16:17;;;;;;;3.90;1.70;;;;;12.60;98161.80;;;;110432;1249;42839;-60
2022/09/05 04:19:12;;;;;;;3.20;1.70;;;;;12.70;98160.60;;;;111006;1249;41803;-60
2022/09/05 04:22:16;;;;;;;3.10;1.70;;;;;12.90;98042.80;;;;111023;1250;41265;-60
2022/09/05 04:25:23;;;;;;;2.80;1.70;;;;;13.80;98004.20;;;;111002;1248;42898;-61
2022/09/05 04:28:14;;;;;;;2.60;1.50;;;;;14.80;98123.00;;;;110980;1248;42409;-61
2022/09/05 04:31:09;;;;;;;2.30;1.60;;;;;15.12;98059.00;;;;110943;1249;43677;-61
2022/09/05 04:34:01;;;;;;;3.80;1.60;;;;;15.68;98012.00;;;;111037;1250;41600;-60
2022/09/05 04:36:59;;;;;;;1.50;1.40;;;;;16.72;98020.40;;;;111048;1247;41509;-61
2022/09/05 04:39:46;;;;;;;2.10;1.40;;;;;18.10;98097.40;;;;111005;1249;41143;-61
2022/09/05 04:42:32;;;;;;;2.00;1.40;;;;;18.82;98127.60;;;;111063;1248;41829;-60
2022/09/05 04:45:18;;;;;;;2.90;1.70;;;;;18.96;98113.80;;;;110991;1247;41937;-60
2022/09/05 04:48:12;;;;;;;5.50;1.90;;;;;18.94;98126.20;;;;111093;1248;41133;-61
2022/09/05 04:51:10;;;;;;;4.10;1.50;;;;;18.80;98145.60;;;;111088;1248;42040;-60
2022/09/05 04:54:22;;;;;;;2.40;1.40;;;;;18.40;98165.40;;;;111121;1247;41399;-61
2022/09/05 04:57:20;;;;;;;2.10;1.30;;;;;17.88;98174.20;;;;110970;1250;41262;-61
2022/09/05 05:00:24;;;;;;;4.70;1.90;;;;;17.40;98174.60;;;;110987;1247;41120;-61
2022/09/05 05:03:32;;;;;;;4.90;2.00;;;;;16.86;98181.40;;;;110977;1247;41791;-61
2022/09/05 05:06:46;;;;;;;5.40;2.00;;;;;16.22;98183.60;;;;110589;1250;41354;-61
2022/09/05 05:09:43;;;;;;;3.30;1.80;;;;;15.90;98188.20;;;;110634;1250;41254;-61
2022/09/05 05:12:56;;;;;;;3.30;1.70;;;;;15.80;98186.40;;;;110692;1250;41127;-62
2022/09/05 05:16:25;;;;;;;4.20;1.80;;;;;15.70;98186.00;;;;110986;1248;41153;-60
2022/09/05 05:19:40;;;;;;;3.90;1.80;;;;;15.52;98192.80;;;;111043;1249;41349;-61
2022/09/05 05:22:27;;;;;;;5.30;1.90;;;;;15.50;98199.00;;;;111071;1249;41657;-61
2022/09/05 05:25:13;;;;;;;3.90;1.80;;;;;15.50;98202.40;;;;111050;1247;41246;-60
2022/09/05 05:28:07;;;;;;;2.80;1.50;;;;;15.62;98202.60;;;;110992;1249;42032;-61
2022/09/05 05:31:31;;;;;;;2.90;1.60;;;;;15.86;98201.00;;;;110900;1251;41456;-61
2022/09/05 05:34:33;;;;;;;3.50;1.70;;;;;16.32;98193.80;;;;110995;1249;41487;-60
2022/09/05 05:37:34;;;;;;;5.10;1.80;;;;;16.84;98180.40;;;;111098;1247;41711;-61
2022/09/05 05:40:25;;;;;;;3.80;1.90;;;;;18.52;98159.00;;;;111052;1250;41156;-61
2022/09/05 05:43:18;;;;;;;11.10;2.00;;;;;19.64;98165.40;;;;110947;1250;41127;-61
2022/09/05 05:46:05;;;;;;;5.50;2.00;;;;;20.78;98164.00;;;;111053;1248;42377;-61
2022/09/05 05:48:54;;;;;;;4.20;1.80;;;;;21.82;98165.60;;;;111060;1250;41612;-61
2022/09/05 05:51:55;;;;;;;4.50;1.80;;;;;22.72;98165.80;;;;111119;1249;42481;-60
2022/09/05 05:54:50;;;;;;;3.10;1.60;;;;;23.88;98162.20;;;;111003;1248;41722;-61
2022/09/05 05:57:57;;;;;;;2.80;1.60;;;;;24.86;98158.20;;;;110964;1249;41538;-61
2022/09/05 06:01:11;;;;;;;2.30;1.50;;;;;25.72;98159.60;;;;111117;1248;41171;-61
2022/09/05 06:04:34;;;;;;;2.60;1.50;;;;;26.64;98161.60;;;;110950;1248;41621;-61
2022/09/05 06:07:44;;;;;;;4.30;2.00;;;;;27.22;98159.40;;;;110957;1249;41214;-61
2022/09/05 06:11:20;;;;;;;2.70;1.50;;;;;27.88;98163.60;;;;110885;1250;41703;-61
2022/09/05 06:14:39;;;;;;;4.40;1.40;;;;;28.34;98169.00;;;;111017;1249;41689;-61
2022/09/05 06:18:13;;;;;;;4.40;1.50;;;;;28.78;98171.00;;;;111026;1248;41774;-62
2022/09/05 06:20:59;;;;;;;9.40;1.60;;;;;29.14;98173.20;;;;111036;1249;41239;-62
2022/09/05 06:24:29;;;;;;;2.50;1.40;;;;;29.00;98175.00;;;;111052;1250;41259;-61
2022/09/05 06:27:38;;;;;;;2.90;1.50;;;;;29.16;98173.60;;;;110912;1250;41943;-62
2022/09/05 06:30:49;;;;;;;3.60;1.50;;;;;28.96;98172.60;;;;111110;1248;41298;-62
2022/09/05 06:33:52;;;;;;;2.20;1.30;;;;;29.18;98179.20;;;;111030;1249;41657;-62
2022/09/05 06:37:03;;;;;;;3.10;1.50;;;;;29.20;98180.40;;;;111128;1250;41799;-62
2022/09/05 06:40:08;;;;;;;5.90;1.90;;;;;29.50;98180.20;;;;111100;1248;41151;-63
2022/09/05 06:43:09;;;;;;;3.30;1.70;;;;;28.64;98176.20;;;;110661;1249;41902;-62
2022/09/05 06:46:18;;;;;;;3.50;1.80;;;;;27.10;98186.40;;;;110934;1250;41605;-62
2022/09/05 06:49:26;;;;;;;6.40;2.00;;;;;26.86;98194.60;;;;110753;1249;41151;-63
2022/09/05 06:52:40;;;;;;;4.00;1.60;;;;;26.10;98204.40;;;;111074;1248;41316;-62
2022/09/05 06:55:26;;;;;;;;;;;;;26.64;98212.80;;;;111005;1249;41595;-62
2022/09/05 06:58:30;;;;;;;5.20;2.10;;;;;26.90;98213.00;;;;110995;1247;41466;-62
2022/09/05 07:01:26;;;;;;;2.20;1.40;;;;;26.42;98222.80;;;;110995;1248;42160;-62
2022/09/05 07:04:39;;;;;;;3.30;1.70;;;;;26.10;98224.80;;;;110972;1248;42571;-61
2022/09/05 07:07:54;;;;;;;3.90;1.70;;;;;26.78;98235.80;;;;111024;1249;41936;-62
2022/09/05 07:10:47;;;;;;;3.60;1.60;;;;;26.90;98226.40;;;;110986;1248;41164;-61
2022/09/05 07:13:55;;;;;;;6.50;1.70;;;;;27.68;98223.60;;;;111014;1249;42494;-62
2022/09/05 07:17:07;;;;;;;3.20;1.70;;;;;27.92;98227.40;;;;111009;1248;41130;-62
2022/09/05 07:20:00;;;;;;;2.90;1.50;;;;;28.00;98234.00;;;;110986;1248;41958;-61
2022/09/05 07:22:56;;;;;;;3.50;1.60;;;;;26.94;98240.00;;;;110914;1248;41269;-62
2022/09/05 07:25:45;;;;;;;2.50;1.30;;;;;26.70;98240.60;;;;110651;1250;41256;-61
2022/09/05 07:28:33;;;;;;;5.50;1.70;;;;;26.50;98245.20;;;;110994;1249;41548;-62
2022/09/05 07:31:23;;;;;;;2.80;1.40;;;;;26.34;98240.00;;;;110984;1248;41245;-62
2022/09/05 07:34:25;;;;;;;5.20;1.60;;;;;26.30;98242.80;;;;110984;1250;41203;-62
2022/09/05 07:37:22;;;;;;;4.90;1.90;;;;;26.10;98242.00;;;;110596;1250;42367;-62
2022/09/05 07:40:16;;;;;;;7.20;2.70;;;;;26.26;98244.80;;;;110964;1249;41674;-61
2022/09/05 07:43:25;;;;;;;5.70;2.10;;;;;25.50;98244.20;;;;110863;1250;41131;-61
2022/09/05 07:46:12;;;;;;;4.90;2.00;;;;;24.72;98251.00;;;;110969;1248;41233;-62
2022/09/05 07:49:02;;;;;;;4.10;1.90;;;;;24.62;98256.80;;;;110994;1248;41206;-61
2022/09/05 07:51:53;;;;;;;7.70;2.00;;;;;24.80;98252.80;;;;110987;1249;41272;-62
2022/09/05 07:55:01;;;;;;;10.70;2.30;;;;;24.52;98256.60;;;;110961;1250;41157;-62
2022/09/05 07:58:11;;;;;;;3.80;1.90;;;;;24.20;98258.20;;;;110725;1250;41272;-62
2022/09/05 08:00:58;;;;;;;5.40;2.10;;;;;23.96;98264.20;;;;111022;1248;41397;-62
2022/09/05 08:03:44;;;;;;;7.30;2.20;;;;;23.86;98261.00;;;;110975;1249;41249;-62
2022/09/05 08:06:30;;;;;;;6.80;2.10;;;;;23.88;98259.60;;;;110723;1250;41292;-62
2022/09/05 08:09:42;;;;;;;5.20;2.10;;;;;24.00;98258.80;;;;110972;1248;41272;-61
2022/09/05 08:12:54;;;;;;;5.00;1.90;;;;;24.10;98252.60;;;;110960;1249;42534;-61
2022/09/05 08:16:00;;;;;;;5.40;2.10;;;;;23.76;98253.60;;;;110772;1250;42365;-61
2022/09/05 08:19:32;;;;;;;4.70;2.00;;;;;23.60;98258.80;;;;110954;1248;41152;-61
2022/09/05 08:22:25;;;;;;;4.00;1.80;;;;;23.40;98260.80;;;;110995;1250;41148;-62
2022/09/05 08:25:22;;;;;;;6.30;2.40;;;;;23.60;98259.00;;;;110718;1250;42379;-61
2022/09/05 08:28:08;;;;;;;5.60;2.00;;;;;23.70;98257.80;;;;110967;1249;41144;-61
2022/09/05 08:31:05;;;;;;;6.30;2.10;;;;;23.60;98254.00;;;;110949;1249;41485;-61
2022/09/05 08:33:55;;;;;;;5.10;2.00;;;;;23.70;98256.00;;;;110981;1250;42275;-61
2022/09/05 08:36:45;;;;;;;5.40;2.10;;;;;23.40;98251.20;;;;110996;1248;41147;-61
2022/09/05 08:39:32;;;;;;;5.50;2.20;;;;;23.00;98252.80;;;;111013;1250;41484;-61
2022/09/05 08:42:54;;;;;;;4.50;2.00;;;;;23.00;98255.60;;;;110981;1250;41262;-61
2022/09/05 08:46:13;;;;;;;9.80;2.40;;;;;23.20;98252.00;;;;110998;1249;41691;-62
2022/09/05 08:49:38;;;;;;;4.50;1.90;;;;;23.50;98249.40;;;;110977;1250;41515;-61
2022/09/05 08:53:03;;;;;;;3.80;1.70;;;;;24.20;98242.20;;;;110962;1249;41748;-62
2022/09/05 08:56:41;;;;;;;6.80;2.00;;;;;25.30;98243.80;;;;110934;1250;41143;-62
2022/09/05 08:59:37;;;;;;;3.90;1.80;;;;;25.56;98246.40;;;;110983;1248;41284;-61
2022/09/05 09:03:03;;;;;;;5.20;1.80;;;;;25.40;98241.60;;;;110981;1247;41922;-62
2022/09/05 09:05:56;;;;;;;3.90;1.60;;;;;25.42;98247.60;;;;110982;1249;41757;-62
2022/09/05 09:09:08;;;;;;;5.80;2.10;;;;;25.70;98249.20;;;;111001;1249;41269;-63
2022/09/05 09:12:18;;;;;;;4.40;1.80;;;;;25.60;98247.00;;;;111006;1250;41135;-61
2022/09/05 09:15:34;;;;;;;5.70;2.00;;;;;25.16;98247.80;;;;110974;1250;41158;-62
2022/09/05 09:18:25;;;;;;;2.90;1.70;;;;;25.08;98247.00;;;;110986;1250;41248;-62
2022/09/05 09:21:29;;;;;;;;;;;;;25.00;98249.20;;;;111013;1249;41157;-62
2022/09/05 09:24:24;;;;;;;6.20;2.10;;;;;24.80;98247.80;;;;110971;1250;41161;-61
2022/09/05 09:27:23;;;;;;;4.30;1.60;;;;;24.70;98243.60;;;;110999;1250;41151;-61
2022/09/05 09:30:16;;;;;;;3.60;1.60;;;;;24.80;98242.00;;;;111022;1249;41171;-62
2022/09/05 09:33:05;;;;;;;5.10;2.10;;;;;25.34;98229.00;;;;110834;1250;41776;-62
2022/09/05 09:35:58;;;;;;;5.90;2.10;;;;;25.90;98226.00;;;;111018;1249;42012;-62
2022/09/05 09:39:06;;;;;;;8.20;1.90;;;;;26.10;98220.20;;;;110975;1248;41747;-61
2022/09/05 09:42:12;;;;;;;5.30;2.00;;;;;27.40;98215.20;;;;111016;1248;41165;-62
2022/09/05 09:45:17;;;;;;;4.80;2.00;;;;;28.20;98209.00;;;;110995;1250;41715;-62
2022/09/05 09:48:44;;;;;;;3.80;1.80;;;;;27.76;98213.60;;;;110999;1250;42498;-63
2022/09/05 09:51:37;;;;;;;6.80;2.20;;;;;28.20;98215.20;;;;110990;1248;41252;-62
2022/09/05 09:54:48;;;;;;;6.90;2.40;;;;;28.40;98215.40;;;;111065;1250;41409;-63
2022/09/05 09:58:04;;;;;;;3.00;1.70;;;;;28.76;98211.80;;;;110997;1248;42125;-62
2022/09/05 10:01:12;;;;;;;5.40;2.00;;;;;28.48;98214.60;;;;110978;1249;41139;-62
2022/09/05 10:04:53;;;;;;;5.30;1.70;;;;;27.90;98214.60;;;;110996;1249;41933;-61
2022/09/05 10:08:04;;;;;;;;;;;;;27.62;98210.40;;;;111010;1247;41966;-62
2022/09/05 10:11:13;;;;;;;4.30;1.70;;;;;28.54;98206.60;;;;110954;1250;41144;-62
2022/09/05 10:14:22;;;;;;;5.70;1.70;;;;;28.50;98206.40;;;;111061;1248;41257;-62
2022/09/05 10:17:45;;;;;;;2.80;1.60;;;;;28.94;98201.60;;;;111364;1248;40746;-62
2022/09/05 10:20:43;;;;;;;4.40;1.80;;;;;29.70;98194.40;;;;111047;1249;41370;-62
2022/09/05 10:23:38;;;;;;;4.50;1.90;;;;;30.18;98188.40;;;;111018;1250;41253;-62
2022/09/05 10:27:04;;;;;;;2.70;1.50;;;;;30.00;98169.00;;;;111015;1250;41954;-62
2022/09/05 10:30:14;;;;;;;5.60;1.70;;;;;30.70;98183.80;;;;111005;1248;41266;-62
2022/09/05 10:33:28;;;;;;;2.80;1.40;;;;;31.20;98190.00;;;;110672;1250;43638;-62
2022/09/05 10:36:36;;;;;;;5.20;1.70;;;;;30.90;98182.20;;;;110969;1249;41138;-62
2022/09/05 10:39:34;;;;;;;2.20;1.40;;;;;30.50;98180.00;;;;110811;1249;41329;-62
2022/09/05 10:42:33;;;;;;;3.20;1.50;;;;;30.18;98177.00;;;;110996;1248;41571;-63
2022/09/05 10:45:33;;;;;;;2.00;1.30;;;;;29.96;98164.60;;;;110952;1250;41405;-62
2022/09/05 10:48:41;;;;;;;3.10;1.50;;;;;31.00;98160.80;;;;110943;1250;41218;-62
2022/09/05 10:52:08;;;;;;;3.50;1.30;;;;;32.16;98163.40;;;;110977;1250;41156;-63
2022/09/05 10:55:16;;;;;;;7.60;1.70;;;;;33.16;98159.40;;;;111002;1249;41451;-63
2022/09/05 10:58:31;;;;;;;2.10;1.10;;;;;33.64;98151.60;;;;110982;1250;41197;-62
2022/09/05 11:01:43;;;;;;;1.20;1.00;;;;;33.92;98152.80;;;;110707;1250;41280;-62
2022/09/05 11:04:59;;;;;;;2.00;1.30;;;;;34.20;98148.60;;;;110741;1250;41162;-62
2022/09/05 11:08:30;;;;;;;2.50;1.20;;;;;33.76;98147.60;;;;110922;1251;41151;-63
2022/09/05 11:11:18;;;;;;;1.40;1.10;;;;;33.22;98145.60;;;;110530;1251;41149;-63
2022/09/05 11:14:49;;;;;;;2.90;1.00;;;;;33.18;98152.00;;;;110996;1250;41140;-62
2022/09/05 11:17:51;;;;;;;3.60;1.10;;;;;33.20;98147.00;;;;110982;1250;41242;-63
2022/09/05 11:20:45;;;;;;;2.80;1.30;;;;;33.62;98140.60;;;;110987;1248;41420;-63
2022/09/05 11:23:38;;;;;;;3.30;1.40;;;;;34.38;98138.60;;;;110989;1250;41369;-63
2022/09/05 11:26:29;;;;;;;2.30;1.30;;;;;34.74;98134.60;;;;111002;1250;41251;-61
2022/09/05 11:29:21;;;;;;;3.10;1.30;;;;;35.40;98128.80;;;;111055;1249;41632;-62
2022/09/05 11:32:18;;;;;;;2.70;1.40;;;;;35.10;98123.40;;;;110614;1251;41156;-63
2022/09/05 11:35:26;;;;;;;4.70;1.40;;;;;34.42;98127.20;;;;110794;1251;41263;-62
2022/09/05 11:39:03;;;;;;;2.00;1.20;;;;;34.34;98125.60;;;;110925;1249;41617;-62
2022/09/05 11:42:08;;;;;;;2.40;1.30;;;;;35.56;98118.40;;;;110707;1250;41135;-63
2022/09/05 11:44:55;;;;;;;2.50;1.30;;;;;36.04;98116.00;;;;110963;1250;41245;-63
2022/09/05 11:48:00;;;;;;;4.00;1.60;;;;;37.20;98110.00;;;;110960;1249;41864;-63
2022/09/05 11:50:46;;;;;;;2.40;1.40;;;;;38.02;98106.00;;;;110981;1250;41614;-64
2022/09/05 11:53:55;;;;;;;2.70;1.30;;;;;38.90;98101.60;;;;110989;1250;41190;-63
2022/09/05 11:57:06;;;;;;;2.10;1.20;;;;;39.04;98105.40;;;;110974;1249;41988;-64
2022/09/05 12:00:19;;;;;;;2.00;1.30;;;;;38.30;98105.40;;;;111030;1250;41134;-64
2022/09/05 12:03:37;;;;;;;2.70;1.30;;;;;38.46;98102.40;;;;111069;1250;41266;-65
2022/09/05 12:07:04;;;;;;;2.50;1.40;;;;;38.56;98098.40;;;;110798;1250;41288;-64
2022/09/05 12:10:25;;;;;;;4.00;1.50;;;;;38.70;98099.80;;;;110862;1250;42355;-63
2022/09/05 12:13:41;;;;;;;2.60;1.20;;;;;39.52;98102.20;;;;111037;1250;41253;-64
2022/09/05 12:16:34;;;;;;;4.40;1.40;;;;;38.72;98104.80;;;;111068;1250;42278;-63
2022/09/05 12:19:30;;;;;;;2.70;1.30;;;;;37.82;98099.20;;;;110950;1250;41156;-63
2022/09/05 12:22:32;;;;;;;3.10;1.30;;;;;36.34;98102.80;;;;110970;1250;41153;-63
2022/09/05 12:25:51;;;;;;;1.90;1.00;;;;;35.82;98104.40;;;;111105;1250;41158;-63
2022/09/05 12:29:02;;;;;;;2.20;1.20;;;;;35.34;98105.00;;;;109876;1250;1484155;-64
2022/09/05 12:32:16;;;;;;;6.80;1.40;;;;;35.10;98095.20;;;;111034;1250;41766;-64
2022/09/05 12:35:02;;;;;;;1.80;1.20;;;;;35.52;98092.20;;;;111013;1249;41164;-62
2022/09/05 12:38:11;;;;;;;1.90;1.20;;;;;35.04;98096.20;;;;110957;1250;41604;-63
2022/09/05 12:41:21;;;;;;;2.80;1.10;;;;;34.30;98096.20;;;;111060;1250;41737;-62
2022/09/05 12:45:12;;;;;;;1.50;1.20;;;;;33.44;98088.60;;;;110972;1250;41434;-62
2022/09/05 12:48:09;;;;;;;1.80;1.10;;;;;33.30;98078.60;;;;110293;1256;41823;-63
2022/09/05 12:51:08;;;;;;;2.30;1.20;;;;;33.50;98088.60;;;;110280;1256;42634;-63
2022/09/05 12:53:58;;;;;;;4.00;1.50;;;;;33.40;98082.20;;;;110932;1249;41276;-64
2022/09/05 12:57:09;;;;;;;3.10;1.30;;;;;33.40;98080.80;;;;111022;1248;41118;-66
2022/09/05 13:00:20;;;;;;;1.70;1.10;;;;;33.92;98074.40;;;;111095;1250;41211;-63
2022/09/05 13:03:29;;;;;;;2.20;1.20;;;;;34.30;98070.00;;;;111295;1250;41129;-63
2022/09/05 13:06:24;;;;;;;2.20;1.20;;;;;34.20;98067.40;;;;111019;1250;41263;-63
2022/09/05 13:09:23;;;;;;;1.60;1.10;;;;;34.12;98061.40;;;;110889;1250;42513;-63
2022/09/05 13:12:33;;;;;;;3.20;1.40;;;;;34.56;98062.40;;;;111053;1250;41149;-63
2022/09/05 13:15:42;;;;;;;1.80;1.10;;;;;35.30;98058.60;;;;110842;1250;41155;-63
2022/09/05 13:18:40;;;;;;;2.20;1.20;;;;;35.30;98056.20;;;;110858;1250;41958;-63
2022/09/05 13:21:26;;;;;;;2.10;1.10;;;;;35.50;98054.60;;;;110905;1250;42169;-63
2022/09/05 13:24:17;;;;;;;1.10;1.00;;;;;35.40;98051.20;;;;111114;1247;41173;-64
2022/09/05 13:27:24;;;;;;;1.30;1.00;;;;;35.44;98052.40;;;;111078;1248;42483;-63
2022/09/05 13:30:12;;;;;;;1.70;1.30;;;;;35.20;98049.40;;;;111125;1249;41722;-63
2022/09/05 13:33:36;;;;;;;1.30;0.90;;;;;34.46;98046.40;;;;111245;1247;42373;-63
2022/09/05 13:36:51;;;;;;;2.20;1.10;;;;;33.72;98047.40;;;;111095;1250;41289;-62
2022/09/05 13:40:03;;;;;;;1.70;1.30;;;;;33.00;98047.20;;;;111055;1250;41185;-63
2022/09/05 13:43:13;;;;;;;2.60;1.20;;;;;32.36;98046.00;;;;111126;1248;41136;-63
2022/09/05 13:46:05;;;;;;;;;;;;;31.70;98050.80;;;;110928;1250;41851;-63
2022/09/05 13:49:09;;;;;;;1.80;1.10;;;;;31.02;98054.20;;;;111051;1250;42383;-62
2022/09/05 13:52:24;;;;;;;1.50;1.00;;;;;30.40;98050.20;;;;110933;1249;41614;-62
2022/09/05 13:55:30;;;;;;;2.50;1.20;;;;;30.20;98055.80;;;;111006;1250;41264;-63
2022/09/05 13:58:30;;;;;;;2.40;1.20;;;;;30.00;98054.80;;;;111058;1250;41251;-62
2022/09/05 14:01:42;;;;;;;1.90;1.20;;;;;29.90;98057.40;;;;111039;1250;42005;-62
2022/09/05 14:04:51;;;;;;;3.60;1.30;;;;;30.00;98058.80;;;;111034;1250;41239;-63
2022/09/05 14:08:22;;;;;;;2.20;1.30;;;;;29.90;98062.60;;;;111016;1250;41478;-63
2022/09/05 14:11:26;;;;;;;2.60;1.40;;;;;29.60;98060.60;;;;111317;1249;41310;-62
2022/09/05 14:14:33;;;;;;;3.10;1.30;;;;;29.28;98067.20;;;;111153;1249;41143;-62
2022/09/05 14:18:26;;;;;;;3.80;1.30;;;;;29.30;98064.00;;;;110986;1250;41251;-63
2022/09/05 14:21:15;;;;;;;2.40;1.30;;;;;29.54;98067.20;;;;110828;1250;41722;-63
2022/09/05 14:24:18;;;;;;;2.10;1.20;;;;;29.28;98069.80;;;;111052;1250;42005;-63
2022/09/05 14:27:16;;;;;;;2.90;1.20;;;;;29.00;98072.80;;;;111236;1250;41143;-63
2022/09/05 14:29:50;;;;;;;3.60;1.20;;;;;28.70;98072.80;;;;111158;1250;42364;-62
2022/09/05 14:32:48;;;;;;;2.40;1.20;;;;;28.32;98080.20;;;;111100;1247;41257;-63
2022/09/05 14:35:50;;;;;;;3.30;1.10;;;;;27.90;98077.60;;;;111119;1250;41155;-63
2022/09/05 14:38:53;;;;;;;1.70;1.20;;;;;27.70;98082.40;;;;111030;1250;41207;-63
2022/09/05 14:41:22;;;;;;;1.70;1.20;;;;;27.60;98081.80;;;;111132;1250;41162;-63
2022/09/05 14:43:57;;;;;;;3.20;1.50;;;;;27.60;98085.60;;;;111091;1250;42024;-62
2022/09/05 14:46:54;;;;;;;4.30;1.60;;;;;27.34;98080.20;;;;111039;1250;41141;-62
2022/09/05 14:49:33;;;;;;;2.40;1.40;;;;;27.04;98076.00;;;;110905;1250;41475;-62
2022/09/05 14:52:30;;;;;;;2.70;1.30;;;;;26.78;98075.80;;;;111141;1250;41147;-62
2022/09/05 14:55:02;;;;;;;3.20;1.40;;;;;26.40;98075.00;;;;111146;1250;41162;-62
2022/09/05 14:57:47;;;;;;;2.30;1.40;;;;;26.30;98078.60;;;;111090;1250;41255;-62
2022/09/05 15:00:55;;;;;;;3.50;1.50;;;;;26.20;98083.60;;;;111099;1250;41833;-61
2022/09/05 15:03:47;;;;;;;4.70;1.60;;;;;26.08;98085.80;;;;111098;1250;41512;-62
2022/09/05 15:06:37;;;;;;;2.80;1.50;;;;;25.90;98083.40;;;;111177;1248;41614;-61
2022/09/05 15:09:08;;;;;;;5.70;1.80;;;;;25.80;98083.40;;;;111102;1249;42343;-62
2022/09/05 15:12:05;;;;;;;2.40;1.30;;;;;25.70;98084.80;;;;111104;1250;41213;-62
2022/09/05 15:15:06;;;;;;;2.70;1.40;;;;;25.54;98082.60;;;;111048;1250;41259;-62
2022/09/05 15:17:35;;;;;;;4.20;1.70;;;;;25.32;98080.20;;;;111044;1248;42753;-62
2022/09/05 15:20:06;;;;;;;2.90;1.50;;;;;25.00;98079.20;;;;111029;1250;41574;-61